Time;durP1;ratioP1;P1;durP2;ratioP2;P2;SDS_P1;SDS_P2;PMS_P1;PMS_P2;Temp;Humidity;BMP_temperature;BMP_pressure;BME280_temperature;BME280_humidity;BME280_pressure;Samples;Min_cycle;Max_cycle;Signal;HPM_P1;HPM_P2
2022/10/17 00:45:10;;;;;;;0.10;0.10;;;;;;;;;;6299481;22;20019;-96
2022/10/17 00:48:33;;;;;;;0.20;0.20;;;;;;;;;;6180653;23;20033;-95
2022/10/17 01:48:12;;;;;;;0.10;0.10;;;;;;;;;;6278055;22;20016;-94
2022/10/17 01:50:41;;;;;;;0.20;0.20;;;;;;;;;;6247340;23;20014;-96
2022/10/17 06:24:57;;;;;;;0.15;0.15;;;;;;;;;;6113636;22;20021;-93
2022/10/17 06:56:01;;;;;;;0.20;0.20;;;;;;;;;;6092512;23;20053;-93
2022/10/17 07:01:23;;;;;;;0.10;0.10;;;;;;;;;;6250525;22;20024;-94
2022/10/17 07:06:25;;;;;;;0.10;0.10;;;;;;;;;;6144925;22;20026;-94
2022/10/17 07:08:52;;;;;;;0.17;0.17;;;;;;;;;;6119645;22;20041;-92
2022/10/17 07:11:19;;;;;;;0.10;0.10;;;;;;;;;;6095885;23;20105;-94
2022/10/17 07:16:21;;;;;;;0.10;0.10;;;;;;;;;;6144077;22;20022;-94
2022/10/17 07:18:51;;;;;;;0.25;0.25;;;;;;;;;;6120955;22;20002;-95
2022/10/17 07:24:11;;;;;;;;;;;;;;;;;;;;;
2022/10/17 07:39:49;;;;;;;0.10;0.10;;;;;;;;;;6299338;22;20065;-94
2022/10/17 07:44:59;;;;;;;0.10;0.10;;;;;;;;;;6285094;22;20023;-93
2022/10/17 08:13:25;;;;;;;0.10;0.10;;;;;;;;;;6269094;22;20027;-95
2022/10/17 08:16:11;;;;;;;0.10;0.10;;;;;;;;;;6272172;22;20020;-93
2022/10/17 08:21:16;;;;;;;0.10;0.10;;;;;;;;;;6256859;22;20000;-95
2022/10/17 08:23:42;;;;;;;0.10;0.10;;;;;;;;;;6243695;22;20020;-96
2022/10/17 08:26:12;;;;;;;0.13;0.13;;;;;;;;;;6242813;22;20024;-93
2022/10/17 08:28:39;;;;;;;0.10;0.10;;;;;;;;;;6242228;23;20062;-91
2022/10/17 08:31:06;;;;;;;0.10;0.10;;;;;;;;;;6241577;23;20058;-94
2022/10/17 08:33:33;;;;;;;0.10;0.10;;;;;;;;;;6243694;23;20008;-94
2022/10/17 08:41:19;;;;;;;0.20;0.20;;;;;;;;;;6213968;22;20024;-96
2022/10/17 08:43:53;;;;;;;0.20;0.20;;;;;;;;;;6276078;22;20045;-95
2022/10/17 08:48:58;;;;;;;0.20;0.20;;;;;;;;;;6299391;22;20015;-94
2022/10/17 08:56:46;;;;;;;0.10;0.10;;;;;;;;;;6281794;22;20012;-92
2022/10/17 08:59:19;;;;;;;0.10;0.10;;;;;;;;;;6245517;22;20004;-95
2022/10/17 09:04:41;;;;;;;0.22;0.22;;;;;;;;;;6285865;22;20050;-91
2022/10/17 09:15:14;;;;;;;0.10;0.10;;;;;;;;;;6289813;22;20019;-96
2022/10/17 09:28:40;;;;;;;0.20;0.20;;;;;;;;;;6286293;22;20058;-92
2022/10/17 09:31:11;;;;;;;0.10;0.10;;;;;;;;;;6270892;22;20008;-90
2022/10/17 09:33:42;;;;;;;0.13;0.13;;;;;;;;;;6271305;22;20047;-90
2022/10/17 09:36:13;;;;;;;0.10;0.10;;;;;;;;;;6270805;22;20023;-90
2022/10/17 09:38:44;;;;;;;0.10;0.10;;;;;;;;;;6268885;22;20016;-88
2022/10/17 09:41:31;;;;;;;0.10;0.10;;;;;;;;;;6269945;22;20030;-89
2022/10/17 09:43:58;;;;;;;0.10;0.10;;;;;;;;;;6272250;22;20015;-90
2022/10/17 09:46:38;;;;;;;0.10;0.10;;;;;;;;;;6269359;22;20027;-88
2022/10/17 09:49:43;;;;;;;0.10;0.10;;;;;;;;;;6271321;22;20024;-89
2022/10/17 09:52:21;;;;;;;0.10;0.10;;;;;;;;;;6204657;22;20015;-88
2022/10/17 09:55:02;;;;;;;0.10;0.10;;;;;;;;;;6266104;22;20022;-86
2022/10/17 09:57:28;;;;;;;0.20;0.20;;;;;;;;;;6270548;22;20016;-85
2022/10/17 10:00:01;;;;;;;0.10;0.10;;;;;;;;;;6292332;22;20019;-87
2022/10/17 10:02:45;;;;;;;0.10;0.10;;;;;;;;;;6216372;22;20035;-90
2022/10/17 10:08:08;;;;;;;0.17;0.17;;;;;;;;;;6265453;22;20036;-91
2022/10/17 10:10:34;;;;;;;0.10;0.10;;;;;;;;;;6230067;22;20082;-93
2022/10/17 10:13:03;;;;;;;0.10;0.10;;;;;;;;;;6238490;23;20042;-89
2022/10/17 10:15:34;;;;;;;0.05;0.05;;;;;;;;;;6264084;23;20027;-91
2022/10/17 10:18:01;;;;;;;0.10;0.10;;;;;;;;;;6240877;23;20026;-91
2022/10/17 10:20:31;;;;;;;0.10;0.10;;;;;;;;;;6238343;23;20027;-92
2022/10/17 10:23:10;;;;;;;0.10;0.10;;;;;;;;;;6238976;23;20020;-93
2022/10/17 10:25:58;;;;;;;0.10;0.10;;;;;;;;;;6240237;22;20000;-89
2022/10/17 10:28:42;;;;;;;0.17;0.17;;;;;;;;;;6246397;23;20024;-90
2022/10/17 10:31:11;;;;;;;0.10;0.10;;;;;;;;;;6247721;23;20024;-89
2022/10/17 10:39:58;;;;;;;0.10;0.10;;;;;;;;;;6247350;22;20091;-94
2022/10/17 10:42:24;;;;;;;0.10;0.10;;;;;;;;;;6272491;22;20000;-95
2022/10/17 10:44:50;;;;;;;0.10;0.10;;;;;;;;;;6275353;22;20043;-94
2022/10/17 10:47:22;;;;;;;0.10;0.10;;;;;;;;;;6272912;22;20008;-93
2022/10/17 10:52:45;;;;;;;0.10;0.10;;;;;;;;;;6276743;22;20024;-94
2022/10/17 10:55:26;;;;;;;0.10;0.10;;;;;;;;;;6218176;22;20024;-94
2022/10/17 10:57:56;;;;;;;0.10;0.10;;;;;;;;;;6243411;22;20021;-95
2022/10/17 11:00:25;;;;;;;0.20;0.20;;;;;;;;;;6219516;23;20024;-92
2022/10/17 11:11:03;;;;;;;0.10;0.10;;;;;;;;;;6244891;22;20015;-93
2022/10/17 11:13:56;;;;;;;0.10;0.10;;;;;;;;;;6267654;22;20068;-95
2022/10/17 11:16:32;;;;;;;0.10;0.10;;;;;;;;;;6234944;23;20028;-93
2022/10/17 11:19:04;;;;;;;0.10;0.10;;;;;;;;;;6244210;23;20027;-91
2022/10/17 11:21:33;;;;;;;0.10;0.10;;;;;;;;;;6237675;23;20020;-91
2022/10/17 11:24:02;;;;;;;0.10;0.10;;;;;;;;;;6237463;23;20012;-93
2022/10/17 11:26:50;;;;;;;0.10;0.10;;;;;;;;;;6263648;22;20004;-93
2022/10/17 11:29:16;;;;;;;0.10;0.10;;;;;;;;;;6193362;22;20008;-92
2022/10/17 11:31:50;;;;;;;0.00;0.00;;;;;;;;;;6271423;22;20051;-94
2022/10/17 11:34:25;;;;;;;0.10;0.10;;;;;;;;;;6265233;22;20104;-93
2022/10/17 11:36:54;;;;;;;0.00;0.00;;;;;;;;;;6265042;22;20042;-93
2022/10/17 11:39:22;;;;;;;0.10;0.10;;;;;;;;;;6273076;22;20030;-88
2022/10/17 11:41:49;;;;;;;0.10;0.10;;;;;;;;;;6275099;22;20017;-92
2022/10/17 11:44:15;;;;;;;0.10;0.10;;;;;;;;;;6269503;22;20012;-94
2022/10/17 11:46:42;;;;;;;0.10;0.10;;;;;;;;;;6274606;22;20020;-92
2022/10/17 11:49:22;;;;;;;0.10;0.10;;;;;;;;;;6272257;22;20054;-92
2022/10/17 11:52:32;;;;;;;;;;;;;;;;;;;;;
2022/10/17 11:55:05;;;;;;;0.00;0.00;;;;;;;;;;6233090;22;20028;-91
2022/10/17 11:57:47;;;;;;;0.13;0.13;;;;;;;;;;6246436;22;20021;-92
2022/10/17 12:00:32;;;;;;;0.15;0.15;;;;;;;;;;6244278;22;20054;-91
2022/10/17 12:03:18;;;;;;;0.25;0.25;;;;;;;;;;6244025;23;20012;-91
2022/10/17 12:06:00;;;;;;;0.10;0.10;;;;;;;;;;6259502;23;20012;-90
2022/10/17 12:09:21;;;;;;;;;;;;;;;;;;;;;
2022/10/17 12:15:33;;;;;;;0.10;0.10;;;;;;;;;;6088724;23;20027;-91
2022/10/17 12:18:15;;;;;;;0.10;0.10;;;;;;;;;;6234834;23;20043;-91
2022/10/17 12:20:41;;;;;;;0.10;0.10;;;;;;;;;;6210765;23;20016;-91
2022/10/17 12:23:10;;;;;;;0.10;0.10;;;;;;;;;;6241836;23;20000;-90
2022/10/17 12:25:47;;;;;;;0.10;0.10;;;;;;;;;;6264814;23;20039;-91
2022/10/17 12:30:49;;;;;;;0.10;0.10;;;;;;;;;;6242351;22;20028;-91
2022/10/17 12:33:25;;;;;;;0.20;0.20;;;;;;;;;;6239423;23;20031;-92
2022/10/17 12:36:12;;;;;;;0.10;0.10;;;;;;;;;;6239279;23;20016;-92
2022/10/17 12:38:38;;;;;;;0.10;0.10;;;;;;;;;;6239218;23;20026;-91
2022/10/17 12:41:24;;;;;;;0.10;0.10;;;;;;;;;;6241036;23;20052;-91
2022/10/17 12:49:05;;;;;;;0.10;0.10;;;;;;;;;;6265761;22;20462;-91
2022/10/17 12:51:59;;;;;;;0.10;0.10;;;;;;;;;;6165356;23;20499;-92
2022/10/17 12:54:25;;;;;;;0.10;0.10;;;;;;;;;;6243766;23;20024;-91
2022/10/17 12:56:53;;;;;;;0.10;0.10;;;;;;;;;;6236911;23;20082;-89
2022/10/17 12:59:24;;;;;;;0.10;0.10;;;;;;;;;;6265659;23;20039;-91
2022/10/17 13:01:59;;;;;;;0.00;0.00;;;;;;;;;;6267592;22;20020;-91
2022/10/17 13:04:26;;;;;;;0.13;0.13;;;;;;;;;;6237543;23;20008;-91
2022/10/17 13:07:01;;;;;;;0.15;0.15;;;;;;;;;;6267174;23;20019;-90
2022/10/17 13:09:27;;;;;;;0.10;0.10;;;;;;;;;;6214087;23;20065;-93
2022/10/17 13:11:56;;;;;;;0.10;0.10;;;;;;;;;;6240023;23;20020;-89
2022/10/17 13:14:23;;;;;;;0.10;0.10;;;;;;;;;;6243091;23;20031;-91
2022/10/17 13:16:59;;;;;;;0.20;0.20;;;;;;;;;;6241034;23;20023;-90
2022/10/17 13:19:30;;;;;;;0.17;0.17;;;;;;;;;;6242188;23;20011;-91
2022/10/17 13:25:08;;;;;;;0.10;0.10;;;;;;;;;;6238144;22;20020;-88
2022/10/17 13:27:35;;;;;;;0.10;0.10;;;;;;;;;;6266313;23;20017;-88
2022/10/17 13:30:02;;;;;;;0.20;0.20;;;;;;;;;;6233383;23;20270;-88
2022/10/17 13:32:39;;;;;;;0.10;0.10;;;;;;;;;;6231424;23;20046;-91
2022/10/17 13:35:07;;;;;;;0.17;0.17;;;;;;;;;;6234566;23;20048;-90
2022/10/17 13:37:34;;;;;;;0.10;0.10;;;;;;;;;;6256696;23;20012;-91
2022/10/17 13:40:03;;;;;;;0.10;0.10;;;;;;;;;;6235704;23;20031;-90
2022/10/17 13:42:37;;;;;;;0.17;0.17;;;;;;;;;;6217860;23;20016;-89
2022/10/17 13:45:03;;;;;;;0.20;0.20;;;;;;;;;;6232002;23;20080;-89
2022/10/17 13:47:33;;;;;;;0.20;0.20;;;;;;;;;;6231959;23;20016;-89
2022/10/17 13:49:59;;;;;;;0.20;0.20;;;;;;;;;;6238135;22;20023;-88
2022/10/17 13:52:30;;;;;;;0.10;0.10;;;;;;;;;;6241246;22;20038;-88
2022/10/17 13:55:14;;;;;;;0.20;0.20;;;;;;;;;;6243856;22;20055;-89
2022/10/17 13:57:41;;;;;;;0.20;0.20;;;;;;;;;;6239520;22;20012;-89
2022/10/17 14:00:11;;;;;;;0.10;0.10;;;;;;;;;;6237060;22;20020;-90
2022/10/17 14:02:40;;;;;;;0.10;0.10;;;;;;;;;;6239944;22;20034;-87
2022/10/17 14:05:12;;;;;;;0.10;0.10;;;;;;;;;;6243693;22;20027;-88
2022/10/17 14:07:53;;;;;;;0.10;0.10;;;;;;;;;;6242809;22;20476;-88
2022/10/17 14:10:25;;;;;;;0.10;0.10;;;;;;;;;;6272274;22;20039;-87
2022/10/17 14:12:52;;;;;;;0.20;0.20;;;;;;;;;;6272292;22;20434;-86
2022/10/17 14:15:47;;;;;;;0.20;0.20;;;;;;;;;;6271425;22;20055;-85
2022/10/17 14:18:14;;;;;;;;;;;;;;;;;;6275772;22;20019;-87
2022/10/17 14:20:50;;;;;;;0.10;0.10;;;;;;;;;;6250057;22;19910;-86
2022/10/17 14:23:38;;;;;;;0.10;0.10;;;;;;;;;;6275128;22;20038;-87
2022/10/17 14:26:04;;;;;;;;;;;;;;;;;;6245637;22;20027;-88
2022/10/17 14:28:30;;;;;;;0.20;0.20;;;;;;;;;;6234861;22;19915;-87
2022/10/17 14:31:08;;;;;;;0.10;0.10;;;;;;;;;;6236833;22;20020;-87
2022/10/17 14:33:35;;;;;;;0.10;0.10;;;;;;;;;;6260088;22;20016;-87
2022/10/17 14:36:04;;;;;;;0.20;0.20;;;;;;;;;;6243891;22;20048;-90
2022/10/17 14:38:34;;;;;;;0.20;0.20;;;;;;;;;;6272859;22;20012;-88
2022/10/17 14:41:19;;;;;;;0.10;0.10;;;;;;;;;;6241092;22;20102;-88
2022/10/17 14:43:51;;;;;;;0.10;0.10;;;;;;;;;;6262725;22;20026;-90
2022/10/17 14:46:21;;;;;;;0.05;0.05;;;;;;;;;;6241589;22;20062;-88
2022/10/17 14:48:51;;;;;;;0.10;0.10;;;;;;;;;;6223258;23;20024;-87
2022/10/17 14:51:18;;;;;;;0.10;0.10;;;;;;;;;;6214465;23;20080;-89
2022/10/17 14:53:58;;;;;;;0.10;0.10;;;;;;;;;;6232250;23;20046;-88
2022/10/17 14:56:54;;;;;;;0.10;0.10;;;;;;;;;;6212144;23;20028;-89
2022/10/17 14:59:24;;;;;;;0.10;0.10;;;;;;;;;;6210199;23;20046;-91
2022/10/17 15:01:50;;;;;;;0.10;0.10;;;;;;;;;;6210072;23;20016;-90
2022/10/17 15:04:17;;;;;;;0.10;0.10;;;;;;;;;;6209763;23;20024;-89
2022/10/17 15:06:44;;;;;;;0.20;0.20;;;;;;;;;;6209443;23;20019;-89
2022/10/17 15:09:11;;;;;;;0.15;0.15;;;;;;;;;;6216592;23;20036;-89
2022/10/17 15:11:37;;;;;;;0.10;0.10;;;;;;;;;;6208407;23;20070;-89
2022/10/17 15:14:09;;;;;;;0.17;0.17;;;;;;;;;;6215865;23;20004;-88
2022/10/17 15:16:38;;;;;;;0.10;0.10;;;;;;;;;;6213131;23;20012;-90
2022/10/17 15:19:21;;;;;;;0.00;0.00;;;;;;;;;;6231992;23;20031;-90
2022/10/17 15:21:47;;;;;;;0.13;0.13;;;;;;;;;;6209005;23;20020;-89
2022/10/17 15:24:19;;;;;;;0.10;0.10;;;;;;;;;;6215667;23;20042;-90
2022/10/17 15:26:56;;;;;;;0.10;0.10;;;;;;;;;;6267207;22;20016;-90
2022/10/17 15:29:44;;;;;;;0.13;0.13;;;;;;;;;;6220733;23;20068;-90
2022/10/17 15:32:41;;;;;;;0.10;0.10;;;;;;;;;;6260207;23;20019;-89
2022/10/17 15:35:22;;;;;;;0.17;0.17;;;;;;;;;;6216578;23;20011;-90
2022/10/17 15:37:49;;;;;;;0.20;0.20;;;;;;;;;;6210555;23;20023;-90
2022/10/17 15:40:17;;;;;;;0.10;0.10;;;;;;;;;;6217992;23;20046;-91
2022/10/17 15:42:43;;;;;;;0.20;0.20;;;;;;;;;;6216504;23;20020;-91
2022/10/17 15:45:11;;;;;;;0.10;0.10;;;;;;;;;;6213445;23;20016;-91
2022/10/17 15:47:37;;;;;;;0.20;0.20;;;;;;;;;;6210611;22;20020;-89
2022/10/17 15:50:05;;;;;;;0.17;0.17;;;;;;;;;;6243253;22;20012;-90
2022/10/17 15:52:32;;;;;;;0.10;0.10;;;;;;;;;;6240133;22;20020;-89
2022/10/17 15:54:58;;;;;;;0.20;0.20;;;;;;;;;;6239514;22;20441;-89
2022/10/17 15:57:29;;;;;;;0.10;0.10;;;;;;;;;;6240772;22;20020;-90
2022/10/17 15:59:57;;;;;;;0.10;0.10;;;;;;;;;;6242361;22;20141;-90
2022/10/17 16:02:34;;;;;;;0.10;0.10;;;;;;;;;;6249243;22;20020;-90
2022/10/17 16:05:08;;;;;;;0.20;0.20;;;;;;;;;;6276806;22;20333;-90
2022/10/17 16:07:39;;;;;;;0.10;0.10;;;;;;;;;;6264205;22;20042;-90
2022/10/17 16:10:28;;;;;;;0.10;0.10;;;;;;;;;;6272514;22;20022;-91
2022/10/17 16:16:05;;;;;;;0.10;0.10;;;;;;;;;;6309366;22;20046;-90
2022/10/17 16:18:32;;;;;;;0.20;0.20;;;;;;;;;;6250071;22;20030;-90
2022/10/17 16:20:58;;;;;;;0.10;0.10;;;;;;;;;;6235810;22;20015;-90
2022/10/17 16:23:26;;;;;;;0.30;0.30;;;;;;;;;;6235180;22;20020;-91
2022/10/17 16:25:52;;;;;;;0.00;0.00;;;;;;;;;;6260766;22;20022;-90
2022/10/17 16:28:18;;;;;;;0.20;0.20;;;;;;;;;;6237359;22;20039;-90
2022/10/17 16:30:45;;;;;;;0.10;0.10;;;;;;;;;;6234654;22;20061;-90
2022/10/17 16:33:11;;;;;;;0.10;0.10;;;;;;;;;;6234883;22;20019;-88
2022/10/17 16:35:37;;;;;;;0.10;0.10;;;;;;;;;;6239853;22;20079;-91
2022/10/17 16:38:04;;;;;;;0.10;0.10;;;;;;;;;;6240457;22;20015;-90
2022/10/17 16:40:31;;;;;;;0.10;0.10;;;;;;;;;;6234992;22;20020;-90
2022/10/17 16:42:59;;;;;;;0.20;0.20;;;;;;;;;;6239299;22;20019;-91
2022/10/17 16:45:25;;;;;;;0.10;0.10;;;;;;;;;;6236217;22;20016;-90
2022/10/17 16:47:53;;;;;;;0.15;0.15;;;;;;;;;;6244467;22;20046;-89
2022/10/17 16:50:49;;;;;;;0.10;0.10;;;;;;;;;;6240310;22;20020;-90
2022/10/17 16:56:33;;;;;;;0.08;0.08;;;;;;;;;;6167797;22;20016;-87
2022/10/17 16:59:00;;;;;;;0.17;0.17;;;;;;;;;;6271084;22;20107;-91
2022/10/17 17:01:30;;;;;;;0.10;0.10;;;;;;;;;;6246965;22;20045;-91
2022/10/17 17:03:57;;;;;;;0.17;0.17;;;;;;;;;;6267596;22;20537;-90
2022/10/17 17:06:30;;;;;;;0.10;0.10;;;;;;;;;;6271596;22;20043;-89
2022/10/17 17:08:57;;;;;;;0.10;0.10;;;;;;;;;;6273414;22;20019;-90
2022/10/17 17:11:24;;;;;;;0.13;0.13;;;;;;;;;;6245590;22;20015;-90
2022/10/17 17:14:03;;;;;;;0.13;0.13;;;;;;;;;;6247565;22;20011;-90
2022/10/17 17:16:30;;;;;;;0.17;0.17;;;;;;;;;;6250947;22;20023;-91
2022/10/17 17:19:06;;;;;;;0.17;0.17;;;;;;;;;;6246489;22;20053;-90
2022/10/17 17:21:38;;;;;;;0.10;0.10;;;;;;;;;;6245379;22;20026;-90
2022/10/17 17:24:06;;;;;;;0.10;0.10;;;;;;;;;;6268843;22;20020;-90
2022/10/17 17:26:40;;;;;;;0.20;0.20;;;;;;;;;;6247369;22;20004;-90
2022/10/17 17:29:06;;;;;;;0.20;0.20;;;;;;;;;;6249909;22;20023;-90
2022/10/17 17:31:34;;;;;;;0.10;0.10;;;;;;;;;;6295490;22;20039;-89
2022/10/17 17:34:00;;;;;;;0.10;0.10;;;;;;;;;;6249384;22;20026;-91
2022/10/17 17:36:31;;;;;;;0.10;0.10;;;;;;;;;;6250106;22;20015;-89
2022/10/17 17:39:06;;;;;;;0.10;0.10;;;;;;;;;;6247485;22;20329;-90
2022/10/17 17:41:33;;;;;;;;;;;;;;;;;;6247586;22;20045;-90
2022/10/17 17:44:00;;;;;;;0.20;0.20;;;;;;;;;;6271653;22;19911;-89
2022/10/17 17:46:29;;;;;;;0.10;0.10;;;;;;;;;;6248328;22;20023;-89
2022/10/17 17:48:55;;;;;;;0.20;0.20;;;;;;;;;;6272899;22;20000;-91
2022/10/17 17:51:28;;;;;;;0.10;0.10;;;;;;;;;;6249343;22;20491;-88
2022/10/17 17:54:25;;;;;;;0.10;0.10;;;;;;;;;;6274762;22;20011;-89
2022/10/17 17:57:00;;;;;;;0.10;0.10;;;;;;;;;;6272326;22;19999;-91
2022/10/17 17:59:48;;;;;;;0.08;0.08;;;;;;;;;;6273233;22;20027;-89
2022/10/17 18:02:15;;;;;;;0.10;0.10;;;;;;;;;;6271973;22;20065;-89
2022/10/17 18:04:46;;;;;;;0.20;0.20;;;;;;;;;;6246542;22;20042;-90
2022/10/17 18:07:30;;;;;;;0.20;0.20;;;;;;;;;;6277177;22;20035;-90
2022/10/17 18:10:03;;;;;;;0.10;0.10;;;;;;;;;;6248713;22;20031;-89
2022/10/17 18:12:29;;;;;;;0.10;0.10;;;;;;;;;;6251343;22;20016;-90
2022/10/17 18:15:11;;;;;;;0.10;0.10;;;;;;;;;;6249305;22;20017;-91
2022/10/17 18:17:57;;;;;;;0.10;0.10;;;;;;;;;;6270947;22;20015;-89
2022/10/17 18:20:28;;;;;;;0.10;0.10;;;;;;;;;;6247623;22;20076;-90
2022/10/17 18:23:24;;;;;;;0.10;0.10;;;;;;;;;;6269918;22;20087;-92
2022/10/17 18:31:12;;;;;;;0.17;0.17;;;;;;;;;;6273072;22;20099;-91
2022/10/17 18:33:48;;;;;;;0.13;0.13;;;;;;;;;;6243406;23;20016;-90
2022/10/17 18:36:16;;;;;;;0.10;0.10;;;;;;;;;;6263395;23;20000;-90
2022/10/17 18:38:45;;;;;;;0.10;0.10;;;;;;;;;;6215051;23;20046;-88
2022/10/17 18:41:15;;;;;;;0.10;0.10;;;;;;;;;;6240325;23;20027;-90
2022/10/17 18:43:42;;;;;;;0.10;0.10;;;;;;;;;;6242223;23;20020;-90
2022/10/17 18:46:16;;;;;;;0.10;0.10;;;;;;;;;;6239948;22;20011;-89
2022/10/17 18:48:45;;;;;;;0.10;0.10;;;;;;;;;;6218017;23;20067;-90
2022/10/17 18:51:13;;;;;;;0.10;0.10;;;;;;;;;;6244126;23;20024;-88
2022/10/17 18:54:03;;;;;;;0.10;0.10;;;;;;;;;;6241295;23;20043;-88
2022/10/17 18:56:32;;;;;;;0.20;0.20;;;;;;;;;;6195289;22;20020;-89
2022/10/17 18:59:17;;;;;;;0.10;0.10;;;;;;;;;;6244278;23;20020;-89
2022/10/17 19:01:45;;;;;;;0.10;0.10;;;;;;;;;;6244115;23;20000;-90
2022/10/17 19:04:12;;;;;;;0.20;0.20;;;;;;;;;;6244714;23;20007;-88
2022/10/17 19:06:38;;;;;;;0.20;0.20;;;;;;;;;;6269950;23;20012;-88
2022/10/17 19:09:06;;;;;;;0.10;0.10;;;;;;;;;;6244011;23;20024;-90
2022/10/17 19:11:51;;;;;;;0.10;0.10;;;;;;;;;;6270409;23;20019;-88
2022/10/17 19:14:17;;;;;;;0.10;0.10;;;;;;;;;;6220460;23;20012;-90
2022/10/17 19:16:45;;;;;;;0.10;0.10;;;;;;;;;;6269211;22;20023;-89
2022/10/17 19:22:24;;;;;;;0.10;0.10;;;;;;;;;;6178924;23;20031;-90
2022/10/17 19:24:54;;;;;;;0.20;0.20;;;;;;;;;;6241175;23;20020;-89
2022/10/17 19:27:20;;;;;;;0.10;0.10;;;;;;;;;;6244631;23;20020;-89
2022/10/17 19:29:47;;;;;;;0.20;0.20;;;;;;;;;;6244057;22;20016;-90
2022/10/17 19:32:13;;;;;;;0.22;0.22;;;;;;;;;;6247365;23;20070;-89
2022/10/17 19:34:39;;;;;;;0.13;0.13;;;;;;;;;;6244601;23;20042;-88
2022/10/17 19:37:13;;;;;;;0.10;0.10;;;;;;;;;;6245449;23;20016;-88
2022/10/17 19:39:48;;;;;;;0.10;0.10;;;;;;;;;;6244332;23;20020;-89
2022/10/17 19:45:42;;;;;;;0.10;0.10;;;;;;;;;;6268477;22;20022;-90
2022/10/17 19:48:09;;;;;;;0.10;0.10;;;;;;;;;;6245492;23;20020;-88
2022/10/17 19:50:35;;;;;;;0.17;0.17;;;;;;;;;;6243942;23;20021;-90
2022/10/17 19:53:04;;;;;;;0.10;0.10;;;;;;;;;;6242844;23;20445;-90
2022/10/17 19:55:46;;;;;;;0.10;0.10;;;;;;;;;;6245302;23;20012;-88
2022/10/17 19:58:12;;;;;;;0.15;0.15;;;;;;;;;;6242140;23;20016;-89
2022/10/17 20:00:38;;;;;;;0.10;0.10;;;;;;;;;;6246936;23;20020;-88
2022/10/17 20:03:05;;;;;;;0.20;0.20;;;;;;;;;;6243505;23;20012;-90
2022/10/17 20:12:02;;;;;;;0.10;0.10;;;;;;;;;;6277788;23;20042;-89
2022/10/17 20:14:29;;;;;;;0.15;0.15;;;;;;;;;;6241698;23;20020;-89
2022/10/17 20:17:05;;;;;;;0.10;0.10;;;;;;;;;;6243578;23;20016;-87
2022/10/17 20:19:32;;;;;;;0.10;0.10;;;;;;;;;;6241070;23;20075;-89
2022/10/17 20:21:58;;;;;;;0.20;0.20;;;;;;;;;;6216555;23;20017;-89
2022/10/17 20:24:24;;;;;;;0.28;0.28;;;;;;;;;;6266214;23;20051;-90
2022/10/17 20:26:51;;;;;;;0.10;0.10;;;;;;;;;;6268811;22;20024;-90
2022/10/17 20:29:19;;;;;;;0.15;0.15;;;;;;;;;;6241627;23;20020;-89
2022/10/17 20:31:48;;;;;;;0.13;0.13;;;;;;;;;;6264542;22;20016;-90
2022/10/17 20:34:23;;;;;;;0.10;0.10;;;;;;;;;;6267417;23;20039;-93
2022/10/17 20:45:15;;;;;;;0.10;0.10;;;;;;;;;;6274502;22;20027;-93
2022/10/17 20:47:41;;;;;;;0.30;0.30;;;;;;;;;;6223920;22;20027;-89
2022/10/17 21:00:30;;;;;;;0.10;0.10;;;;;;;;;;6235871;22;20024;-88
2022/10/17 21:03:15;;;;;;;0.10;0.10;;;;;;;;;;6269393;22;20015;-88
2022/10/17 21:05:41;;;;;;;0.20;0.20;;;;;;;;;;6264450;23;20121;-89
2022/10/17 21:08:11;;;;;;;0.10;0.10;;;;;;;;;;6245008;23;20013;-88
2022/10/17 21:10:46;;;;;;;0.10;0.10;;;;;;;;;;6222335;23;20036;-88
2022/10/17 21:13:13;;;;;;;0.10;0.10;;;;;;;;;;6221363;23;20017;-89
2022/10/17 21:15:50;;;;;;;0.20;0.20;;;;;;;;;;6247330;23;20056;-89
2022/10/17 21:18:19;;;;;;;0.10;0.10;;;;;;;;;;6245324;23;20152;-88
2022/10/17 21:20:45;;;;;;;0.20;0.20;;;;;;;;;;6242211;23;20016;-89
2022/10/17 21:23:14;;;;;;;0.10;0.10;;;;;;;;;;6243650;23;20012;-88
2022/10/17 21:25:46;;;;;;;0.10;0.10;;;;;;;;;;6242567;23;20023;-88
2022/10/17 21:28:14;;;;;;;0.20;0.20;;;;;;;;;;6243507;23;20043;-88
2022/10/17 21:30:40;;;;;;;0.10;0.10;;;;;;;;;;6243841;23;20022;-90
2022/10/17 21:33:08;;;;;;;0.20;0.20;;;;;;;;;;6268896;23;20460;-89
2022/10/17 21:35:34;;;;;;;0.15;0.15;;;;;;;;;;6243417;23;20016;-90
2022/10/17 21:38:00;;;;;;;0.20;0.20;;;;;;;;;;6269122;23;20016;-89
2022/10/17 21:40:30;;;;;;;0.10;0.10;;;;;;;;;;6243980;23;20008;-89
2022/10/17 21:42:56;;;;;;;0.25;0.25;;;;;;;;;;6242479;23;20004;-88
2022/10/17 21:45:41;;;;;;;0.10;0.10;;;;;;;;;;6243788;23;19996;-88
2022/10/17 21:48:26;;;;;;;0.10;0.10;;;;;;;;;;6259550;23;20019;-88
2022/10/17 21:50:57;;;;;;;0.20;0.20;;;;;;;;;;6243120;22;20004;-89
2022/10/17 21:53:23;;;;;;;0.10;0.10;;;;;;;;;;6241268;23;20004;-88
2022/10/17 21:55:59;;;;;;;0.10;0.10;;;;;;;;;;6247423;23;20016;-88
2022/10/17 22:01:48;;;;;;;0.10;0.10;;;;;;;;;;6292185;22;20027;-91
2022/10/17 22:04:19;;;;;;;0.10;0.10;;;;;;;;;;6267734;23;20083;-90
2022/10/17 22:07:10;;;;;;;0.10;0.10;;;;;;;;;;6269188;22;20019;-89
2022/10/17 22:09:37;;;;;;;0.20;0.20;;;;;;;;;;6238766;23;20020;-88
2022/10/17 22:12:03;;;;;;;0.10;0.10;;;;;;;;;;6243178;23;20003;-89
2022/10/17 22:14:33;;;;;;;0.10;0.10;;;;;;;;;;6243928;23;20012;-89
2022/10/17 22:17:01;;;;;;;0.10;0.10;;;;;;;;;;6241701;23;20073;-88
2022/10/17 22:19:33;;;;;;;0.20;0.20;;;;;;;;;;6240386;23;20023;-89
2022/10/17 22:22:00;;;;;;;0.20;0.20;;;;;;;;;;6240168;23;20255;-89
2022/10/17 22:27:36;;;;;;;0.10;0.10;;;;;;;;;;6281121;22;20073;-89
2022/10/17 22:30:04;;;;;;;0.10;0.10;;;;;;;;;;6241821;23;20020;-90
2022/10/17 22:32:30;;;;;;;0.10;0.10;;;;;;;;;;6265099;23;20023;-89
2022/10/17 22:34:56;;;;;;;0.20;0.20;;;;;;;;;;6242525;23;20023;-90
2022/10/17 22:37:25;;;;;;;0.20;0.20;;;;;;;;;;6243142;23;20039;-88
2022/10/17 22:39:54;;;;;;;0.17;0.17;;;;;;;;;;6218255;23;20046;-88
2022/10/17 22:42:30;;;;;;;0.17;0.17;;;;;;;;;;6242339;23;20019;-89
2022/10/17 22:44:56;;;;;;;0.10;0.10;;;;;;;;;;6213721;23;20007;-89
2022/10/17 22:47:26;;;;;;;0.10;0.10;;;;;;;;;;6236613;23;20342;-90
2022/10/17 22:49:55;;;;;;;0.10;0.10;;;;;;;;;;6264222;23;20016;-89
2022/10/17 22:52:21;;;;;;;0.20;0.20;;;;;;;;;;6239133;23;20012;-88
2022/10/17 22:54:54;;;;;;;0.10;0.10;;;;;;;;;;6271624;23;20012;-89
2022/10/17 23:01:04;;;;;;;0.17;0.17;;;;;;;;;;6136790;23;20025;-89
2022/10/17 23:03:36;;;;;;;0.17;0.17;;;;;;;;;;6259552;23;20016;-89
2022/10/17 23:06:04;;;;;;;0.10;0.10;;;;;;;;;;6241459;23;20450;-88
2022/10/17 23:08:30;;;;;;;0.20;0.20;;;;;;;;;;6242637;23;20016;-87
2022/10/17 23:11:04;;;;;;;0.10;0.10;;;;;;;;;;6240431;23;20072;-88
2022/10/17 23:13:30;;;;;;;0.10;0.10;;;;;;;;;;6238857;23;20016;-88
2022/10/17 23:15:57;;;;;;;0.20;0.20;;;;;;;;;;6239648;23;20016;-89
2022/10/17 23:18:30;;;;;;;0.10;0.10;;;;;;;;;;6266371;23;20016;-88
2022/10/17 23:21:19;;;;;;;0.10;0.10;;;;;;;;;;6266956;23;20070;-88
2022/10/17 23:23:54;;;;;;;0.17;0.17;;;;;;;;;;6268575;23;20021;-89
2022/10/17 23:26:20;;;;;;;0.20;0.20;;;;;;;;;;6242325;23;20149;-89
2022/10/17 23:28:49;;;;;;;0.20;0.20;;;;;;;;;;6239199;23;20039;-89
2022/10/17 23:31:22;;;;;;;0.20;0.20;;;;;;;;;;6268688;22;20016;-89
2022/10/17 23:33:55;;;;;;;0.20;0.20;;;;;;;;;;6217264;23;20024;-89
2022/10/17 23:36:21;;;;;;;0.10;0.10;;;;;;;;;;6243033;23;20015;-90
2022/10/17 23:38:56;;;;;;;0.20;0.20;;;;;;;;;;6269553;23;20020;-90
2022/10/17 23:44:41;;;;;;;0.20;0.20;;;;;;;;;;6245364;23;20027;-88
2022/10/17 23:47:09;;;;;;;0.10;0.10;;;;;;;;;;6242673;23;20016;-90
2022/10/17 23:49:35;;;;;;;0.10;0.10;;;;;;;;;;6242719;23;20020;-89
2022/10/17 23:52:05;;;;;;;0.10;0.10;;;;;;;;;;6266668;23;20016;-87
2022/10/17 23:54:34;;;;;;;0.10;0.10;;;;;;;;;;6271259;23;20043;-89
2022/10/17 23:57:00;;;;;;;0.15;0.15;;;;;;;;;;6242710;23;20016;-89
2022/10/17 23:59:26;;;;;;;0.22;0.22;;;;;;;;;;6245862;23;20023;-89
